Time;durP1;ratioP1;P1;durP2;ratioP2;P2;SDS_P1;SDS_P2;PMS_P1;PMS_P2;Temp;Humidity;BMP_temperature;BMP_pressure;BME280_temperature;BME280_humidity;BME280_pressure;Samples;Min_cycle;Max_cycle;Signal;HPM_P1;HPM_P2
2022/10/23 00:00:55;;;;;;;10.90;5.32;;;14.20;99.90;;;;;;5047586;28;20211;-74
2022/10/23 00:03:20;;;;;;;11.68;5.53;;;14.10;99.90;;;;;;5063683;28;20234;-73
2022/10/23 00:05:46;;;;;;;9.23;5.45;;;14.10;99.90;;;;;;5065930;28;20574;-73
2022/10/23 00:08:12;;;;;;;10.07;5.43;;;14.10;99.90;;;;;;5043288;28;20204;-74
2022/10/23 00:10:41;;;;;;;7.85;5.40;;;14.10;99.90;;;;;;5063253;28;20215;-73
2022/10/23 00:13:06;;;;;;;10.25;5.45;;;14.10;99.90;;;;;;5060690;28;20199;-73
2022/10/23 00:15:34;;;;;;;9.02;5.22;;;14.00;99.90;;;;;;5069230;28;20252;-74
2022/10/23 00:17:59;;;;;;;8.00;5.20;;;14.00;99.90;;;;;;5063576;28;20268;-74
2022/10/23 00:20:25;;;;;;;7.43;5.60;;;14.00;99.90;;;;;;5063305;28;20183;-74
2022/10/23 00:22:51;;;;;;;13.05;6.32;;;14.00;99.90;;;;;;5065183;28;20207;-74
2022/10/23 00:25:17;;;;;;;11.77;5.88;;;14.00;99.90;;;;;;5066135;28;20564;-71
2022/10/23 00:27:43;;;;;;;9.98;5.72;;;13.90;99.90;;;;;;5041945;28;20218;-71
2022/10/23 00:30:09;;;;;;;10.93;5.88;;;13.90;99.90;;;;;;5060758;28;20207;-74
2022/10/23 00:32:35;;;;;;;9.25;5.70;;;13.90;99.90;;;;;;5067952;28;20736;-73
2022/10/23 00:35:00;;;;;;;8.52;5.60;;;13.90;99.90;;;;;;5066004;28;20257;-74
2022/10/23 00:37:26;;;;;;;11.18;6.07;;;13.90;99.90;;;;;;5062885;28;20229;-74
2022/10/23 00:39:52;;;;;;;10.65;5.40;;;13.90;99.90;;;;;;5064906;28;20286;-73
2022/10/23 00:42:20;;;;;;;10.07;6.10;;;14.00;99.90;;;;;;5063875;28;20313;-74
2022/10/23 00:44:45;;;;;;;10.38;5.53;;;14.00;99.90;;;;;;5066670;28;20199;-74
2022/10/23 00:47:12;;;;;;;8.25;5.45;;;14.00;99.90;;;;;;5050616;28;20742;-73
2022/10/23 00:49:39;;;;;;;8.57;4.63;;;14.00;99.90;;;;;;5055873;28;20214;-73
2022/10/23 00:52:07;;;;;;;8.60;5.25;;;14.10;99.90;;;;;;5045132;28;20669;-73
2022/10/23 00:54:39;;;;;;;9.25;5.47;;;14.10;99.90;;;;;;5066411;28;20295;-73
2022/10/23 00:57:08;;;;;;;8.82;5.45;;;14.10;99.90;;;;;;5067040;28;20211;-74
2022/10/23 00:59:34;;;;;;;11.13;5.43;;;14.20;99.90;;;;;;5070439;28;20285;-74
2022/10/23 01:01:59;;;;;;;7.00;5.13;;;14.20;99.90;;;;;;5065949;28;20269;-74
2022/10/23 01:04:26;;;;;;;10.82;5.35;;;14.20;99.90;;;;;;5066147;28;20222;-74
2022/10/23 01:06:51;;;;;;;6.13;4.47;;;14.30;99.90;;;;;;5070675;28;20215;-73
2022/10/23 01:09:39;;;;;;;8.77;4.88;;;14.30;99.90;;;;;;5066468;28;20722;-74
2022/10/23 01:12:29;;;;;;;10.90;5.22;;;14.30;99.90;;;;;;5045079;28;20202;-74
2022/10/23 01:15:04;;;;;;;10.73;5.40;;;14.30;99.90;;;;;;5069783;28;20211;-73
2022/10/23 01:17:54;;;;;;;7.97;4.55;;;14.30;99.90;;;;;;5069109;28;20255;-75
2022/10/23 01:20:53;;;;;;;8.70;4.70;;;14.30;99.90;;;;;;5067146;28;20221;-74
2022/10/23 01:23:39;;;;;;;7.35;4.63;;;14.30;99.90;;;;;;5056989;28;20199;-72
2022/10/23 01:26:22;;;;;;;9.27;4.60;;;14.30;99.90;;;;;;5049660;28;20314;-73
2022/10/23 01:29:03;;;;;;;9.63;5.10;;;14.20;99.90;;;;;;5064165;28;20218;-74
2022/10/23 01:31:38;;;;;;;12.18;5.57;;;14.20;99.90;;;;;;5052583;28;20226;-73
2022/10/23 01:34:14;;;;;;;8.77;4.90;;;14.20;99.90;;;;;;5050054;28;20215;-74
2022/10/23 01:36:43;;;;;;;9.57;5.53;;;14.20;99.90;;;;;;5065435;28;20237;-74
2022/10/23 01:39:17;;;;;;;7.50;5.13;;;14.10;99.90;;;;;;5063803;28;20204;-74
2022/10/23 01:41:52;;;;;;;7.88;4.85;;;14.20;99.90;;;;;;5067186;28;20186;-74
2022/10/23 01:44:37;;;;;;;8.80;5.43;;;14.20;99.90;;;;;;5068416;28;20171;-72
2022/10/23 01:47:06;;;;;;;7.35;5.13;;;14.10;99.90;;;;;;5062327;28;20219;-74
2022/10/23 01:49:32;;;;;;;8.50;5.38;;;14.20;99.90;;;;;;5060783;22;20588;-71
2022/10/23 01:52:02;;;;;;;7.32;5.05;;;14.20;99.90;;;;;;5072066;28;20203;-71
2022/10/23 01:54:34;;;;;;;8.43;5.60;;;14.20;99.90;;;;;;5067281;28;20260;-70
2022/10/23 01:57:01;;;;;;;11.65;5.80;;;14.20;99.90;;;;;;5054145;28;20218;-70
2022/10/23 01:59:35;;;;;;;12.40;5.78;;;14.20;99.90;;;;;;5071607;28;20210;-70
2022/10/23 02:02:02;;;;;;;8.10;5.45;;;14.10;99.90;;;;;;5072764;28;20218;-70
2022/10/23 02:04:56;;;;;;;10.82;5.25;;;14.10;99.90;;;;;;5054176;28;20215;-70
2022/10/23 02:07:22;;;;;;;8.75;5.18;;;14.10;99.90;;;;;;5059124;28;20558;-70
2022/10/23 02:09:48;;;;;;;8.90;5.03;;;14.10;99.90;;;;;;5071795;28;20215;-70
2022/10/23 02:12:21;;;;;;;9.13;6.32;;;14.10;99.90;;;;;;5053837;28;20656;-69
2022/10/23 02:14:55;;;;;;;11.38;5.75;;;14.10;99.90;;;;;;5068689;28;20179;-70
2022/10/23 02:17:45;;;;;;;9.25;5.85;;;14.10;99.90;;;;;;5071093;28;20167;-69
2022/10/23 02:20:19;;;;;;;7.05;5.05;;;14.00;99.90;;;;;;5071078;28;20223;-69
2022/10/23 02:22:59;;;;;;;10.55;5.47;;;14.10;99.90;;;;;;5071840;28;20214;-70
2022/10/23 02:25:40;;;;;;;9.32;5.75;;;14.10;99.90;;;;;;5069930;28;20215;-70
2022/10/23 02:28:09;;;;;;;9.75;5.50;;;14.10;99.90;;;;;;5070068;28;20214;-70
2022/10/23 02:30:40;;;;;;;8.77;5.43;;;14.20;99.90;;;;;;5071292;28;20206;-70
2022/10/23 02:33:07;;;;;;;8.48;5.70;;;14.20;99.90;;;;;;5071322;28;20297;-70
2022/10/23 02:35:33;;;;;;;9.35;5.90;;;14.20;99.90;;;;;;5071441;28;20258;-70
2022/10/23 02:38:00;;;;;;;10.93;6.15;;;14.20;99.90;;;;;;5071804;28;20265;-70
2022/10/23 02:40:43;;;;;;;10.10;6.10;;;14.10;99.90;;;;;;5070719;28;20587;-69
2022/10/23 02:43:16;;;;;;;8.85;5.50;;;14.10;99.90;;;;;;5053159;28;20256;-70
2022/10/23 02:45:51;;;;;;;9.52;5.38;;;14.00;99.90;;;;;;5071472;28;20225;-70
2022/10/23 02:48:26;;;;;;;8.52;5.70;;;14.00;99.90;;;;;;5071218;28;20194;-70
2022/10/23 02:51:04;;;;;;;9.55;5.60;;;13.90;99.90;;;;;;5052817;28;20309;-70
2022/10/23 02:53:30;;;;;;;10.73;5.25;;;13.90;99.90;;;;;;5067874;28;20217;-69
2022/10/23 02:56:12;;;;;;;8.23;5.30;;;13.80;99.90;;;;;;5065478;28;20175;-69
2022/10/23 02:58:55;;;;;;;8.98;5.63;;;13.80;99.90;;;;;;5067290;28;20202;-68
2022/10/23 03:01:27;;;;;;;11.65;6.25;;;13.70;99.90;;;;;;5065699;28;20535;-69
2022/10/23 03:03:56;;;;;;;9.30;5.93;;;13.70;99.90;;;;;;5051266;28;20210;-68
2022/10/23 03:06:22;;;;;;;9.95;5.70;;;13.70;99.90;;;;;;5060608;28;20219;-70
2022/10/23 03:08:52;;;;;;;10.15;6.55;;;13.70;99.90;;;;;;5066263;28;20213;-69
2022/10/23 03:11:18;;;;;;;10.77;5.85;;;13.60;99.90;;;;;;5060173;28;20194;-68
2022/10/23 03:13:43;;;;;;;11.45;5.90;;;13.60;99.90;;;;;;5066843;28;20689;-70
2022/10/23 03:16:09;;;;;;;12.80;6.23;;;13.60;99.90;;;;;;5044365;28;20211;-70
2022/10/23 03:18:34;;;;;;;7.33;5.67;;;13.70;99.90;;;;;;5066999;28;20561;-70
2022/10/23 03:21:00;;;;;;;10.80;6.20;;;13.70;99.90;;;;;;5049570;28;20206;-71
2022/10/23 03:23:26;;;;;;;9.38;5.97;;;13.70;99.90;;;;;;5043810;28;20202;-70
2022/10/23 03:25:52;;;;;;;9.55;5.85;;;13.70;99.90;;;;;;5066529;28;20637;-70
2022/10/23 03:28:18;;;;;;;13.63;5.97;;;13.60;99.90;;;;;;5066934;28;20206;-70
2022/10/23 03:30:43;;;;;;;10.73;5.97;;;13.60;99.90;;;;;;5062659;28;20306;-70
2022/10/23 03:33:09;;;;;;;7.57;6.20;;;13.60;99.90;;;;;;5061171;28;20198;-70
2022/10/23 03:35:34;;;;;;;7.15;5.35;;;13.60;99.90;;;;;;5045230;28;20182;-68
2022/10/23 03:38:00;;;;;;;8.23;6.50;;;13.60;99.90;;;;;;5068910;28;20179;-70
2022/10/23 03:40:26;;;;;;;9.18;6.63;;;13.50;99.90;;;;;;5045285;28;20211;-69
2022/10/23 03:42:51;;;;;;;9.35;5.80;;;13.50;99.90;;;;;;5065351;28;20215;-70
2022/10/23 03:45:17;;;;;;;14.73;6.25;;;13.50;99.90;;;;;;5048115;28;20211;-68
2022/10/23 03:47:43;;;;;;;10.35;6.50;;;13.50;99.90;;;;;;5047798;28;20187;-69
2022/10/23 03:50:10;;;;;;;12.23;6.38;;;13.40;99.90;;;;;;5043379;28;20313;-69
2022/10/23 03:52:35;;;;;;;9.98;6.32;;;13.40;99.90;;;;;;5044761;28;20202;-69
2022/10/23 03:55:01;;;;;;;8.20;6.07;;;13.40;99.90;;;;;;5068980;28;20210;-71
2022/10/23 03:57:27;;;;;;;13.47;6.87;;;13.40;99.90;;;;;;5048381;28;20213;-69
2022/10/23 03:59:52;;;;;;;8.02;5.57;;;13.40;99.90;;;;;;5064488;28;20578;-67
2022/10/23 04:02:18;;;;;;;11.37;6.07;;;13.40;99.90;;;;;;5066494;28;20538;-69
2022/10/23 04:04:43;;;;;;;12.00;7.23;;;13.30;99.90;;;;;;5065401;28;20679;-69
2022/10/23 04:07:09;;;;;;;11.10;6.87;;;13.30;99.90;;;;;;5042740;28;20704;-71
2022/10/23 04:09:35;;;;;;;9.20;6.47;;;13.30;99.90;;;;;;5065907;28;20616;-70
2022/10/23 04:12:00;;;;;;;10.83;6.80;;;13.30;99.90;;;;;;5049529;28;20629;-70
2022/10/23 04:14:26;;;;;;;10.07;6.30;;;13.30;99.90;;;;;;5063303;28;20180;-70
2022/10/23 04:16:51;;;;;;;10.60;6.00;;;13.20;99.90;;;;;;5064696;28;20218;-70
2022/10/23 04:19:17;;;;;;;9.53;6.73;;;13.20;99.90;;;;;;5065234;28;20666;-69
2022/10/23 04:21:43;;;;;;;9.03;6.73;;;13.10;99.90;;;;;;5069196;28;20577;-70
2022/10/23 04:24:09;;;;;;;11.97;6.87;;;13.10;99.90;;;;;;5042247;28;20222;-70
2022/10/23 04:26:34;;;;;;;10.17;6.10;;;13.00;99.90;;;;;;5039957;28;20212;-70
2022/10/23 04:29:00;;;;;;;11.40;7.63;;;13.00;99.90;;;;;;5067220;28;20224;-71
2022/10/23 04:31:26;;;;;;;13.80;7.43;;;13.00;99.90;;;;;;5062158;28;20242;-70
2022/10/23 04:33:51;;;;;;;9.43;6.57;;;12.90;99.90;;;;;;5046524;28;20256;-70
2022/10/23 04:36:17;;;;;;;12.47;6.60;;;12.90;99.90;;;;;;5046984;28;20211;-70
2022/10/23 04:38:42;;;;;;;10.97;6.70;;;12.90;99.90;;;;;;5068882;28;20210;-69
2022/10/23 04:41:08;;;;;;;11.10;7.47;;;12.90;99.90;;;;;;5060922;28;20244;-70
2022/10/23 04:43:34;;;;;;;10.90;6.60;;;12.90;99.90;;;;;;5046961;28;20293;-70
2022/10/23 04:45:59;;;;;;;14.43;7.63;;;12.80;99.90;;;;;;5066762;28;20218;-69
2022/10/23 04:48:25;;;;;;;14.63;8.17;;;12.80;99.90;;;;;;5064144;28;20219;-69
2022/10/23 04:50:55;;;;;;;12.90;7.47;;;12.80;99.90;;;;;;5065656;28;20355;-69
2022/10/23 04:53:20;;;;;;;8.47;6.57;;;12.80;99.90;;;;;;5050973;28;20179;-70
2022/10/23 04:55:54;;;;;;;18.10;7.63;;;12.70;99.90;;;;;;5068495;28;20294;-69
2022/10/23 04:58:20;;;;;;;11.13;7.13;;;12.70;99.90;;;;;;5050189;28;20206;-68
2022/10/23 05:00:47;;;;;;;12.53;7.20;;;12.70;99.90;;;;;;5047951;28;20219;-70
2022/10/23 05:03:13;;;;;;;10.07;7.07;;;12.70;99.90;;;;;;5068773;28;20215;-70
2022/10/23 05:05:38;;;;;;;11.83;7.27;;;12.70;99.90;;;;;;5065214;28;20255;-70
2022/10/23 05:08:04;;;;;;;10.40;8.03;;;12.70;99.90;;;;;;5065373;28;20179;-70
2022/10/23 05:10:30;;;;;;;12.33;7.07;;;12.70;99.90;;;;;;5068284;28;20704;-70
2022/10/23 05:12:55;;;;;;;10.87;7.10;;;12.70;99.90;;;;;;5051263;28;20211;-70
2022/10/23 05:15:21;;;;;;;8.60;7.00;;;12.60;99.90;;;;;;5071654;28;20203;-70
2022/10/23 05:17:51;;;;;;;13.33;7.37;;;12.60;99.90;;;;;;5072612;28;20201;-70
2022/10/23 05:20:21;;;;;;;11.30;7.20;;;12.60;99.90;;;;;;5073778;28;20207;-69
2022/10/23 05:22:51;;;;;;;12.83;7.47;;;12.60;99.90;;;;;;5055291;28;20246;-69
2022/10/23 05:25:17;;;;;;;13.33;7.37;;;12.60;99.90;;;;;;5071634;28;20215;-69
2022/10/23 05:27:43;;;;;;;10.93;7.60;;;12.60;99.90;;;;;;5074382;28;20270;-69
2022/10/23 05:30:09;;;;;;;9.60;6.67;;;12.60;99.90;;;;;;5075814;28;20749;-69
2022/10/23 05:32:35;;;;;;;11.70;6.87;;;12.60;99.90;;;;;;5075228;28;20194;-69
2022/10/23 05:35:06;;;;;;;12.03;7.63;;;12.60;99.90;;;;;;5075561;28;20183;-69
2022/10/23 05:37:32;;;;;;;10.07;7.00;;;12.50;99.90;;;;;;5071900;28;20301;-70
2022/10/23 05:39:57;;;;;;;19.80;7.53;;;12.50;99.90;;;;;;5056230;28;20238;-68
2022/10/23 05:42:23;;;;;;;11.80;7.30;;;12.50;99.90;;;;;;5074675;28;20218;-69
2022/10/23 05:44:48;;;;;;;15.73;8.10;;;12.50;99.90;;;;;;5075717;28;20222;-69
2022/10/23 05:47:14;;;;;;;12.83;7.53;;;12.50;99.90;;;;;;5076159;28;20698;-70
2022/10/23 05:49:39;;;;;;;11.03;7.70;;;12.50;99.90;;;;;;5056543;28;20987;-69
2022/10/23 05:52:05;;;;;;;10.87;7.23;;;12.50;99.90;;;;;;5074474;28;20211;-69
2022/10/23 05:54:30;;;;;;;15.10;7.67;;;12.60;99.90;;;;;;5075157;28;20222;-69
2022/10/23 05:56:56;;;;;;;11.53;7.97;;;12.60;99.90;;;;;;5073517;28;20215;-68
2022/10/23 05:59:22;;;;;;;9.83;7.87;;;12.60;99.90;;;;;;5052196;28;20199;-69
2022/10/23 06:01:47;;;;;;;12.73;7.53;;;12.60;99.90;;;;;;5072287;28;20218;-69
2022/10/23 06:04:13;;;;;;;11.77;7.27;;;12.60;99.90;;;;;;5072277;28;20631;-69
2022/10/23 06:06:38;;;;;;;12.47;7.07;;;12.70;99.90;;;;;;5072502;28;20223;-69
2022/10/23 06:09:04;;;;;;;11.97;7.50;;;12.70;99.90;;;;;;5072070;28;20743;-70
2022/10/23 06:11:30;;;;;;;11.40;7.80;;;12.70;99.90;;;;;;5053476;28;20725;-69
2022/10/23 06:13:55;;;;;;;13.00;7.53;;;12.80;99.90;;;;;;5072295;28;20190;-69
2022/10/23 06:16:26;;;;;;;11.57;7.37;;;12.70;99.90;;;;;;5072305;28;20211;-68
2022/10/23 06:18:51;;;;;;;11.73;7.33;;;12.70;99.90;;;;;;5072132;28;20589;-69
2022/10/23 06:21:17;;;;;;;12.97;7.93;;;12.90;99.90;;;;;;5071990;28;20203;-69
2022/10/23 06:23:44;;;;;;;10.57;7.20;;;13.00;99.90;;;;;;5072048;28;20198;-70
2022/10/23 06:26:12;;;;;;;12.57;8.07;;;13.20;99.90;;;;;;5071909;28;20285;-68
2022/10/23 06:28:37;;;;;;;9.57;7.10;;;13.60;99.90;;;;;;5053890;28;20225;-69
2022/10/23 06:31:12;;;;;;;9.50;6.57;;;13.80;99.90;;;;;;5071404;28;20211;-69
2022/10/23 06:33:38;;;;;;;12.25;6.22;;;14.10;99.90;;;;;;5071843;28;20211;-70
2022/10/23 06:36:04;;;;;;;11.70;6.95;;;14.40;99.90;;;;;;5069307;28;20218;-69
2022/10/23 06:38:36;;;;;;;12.93;7.03;;;14.70;99.90;;;;;;5071153;28;20171;-69
2022/10/23 06:41:02;;;;;;;12.20;6.23;;;14.90;99.90;;;;;;5070021;28;20295;-69
2022/10/23 06:43:28;;;;;;;7.75;5.70;;;15.40;99.90;;;;;;5071646;28;20222;-69
2022/10/23 06:45:53;;;;;;;9.80;6.28;;;15.90;99.90;;;;;;5071064;28;20231;-67
2022/10/23 06:48:19;;;;;;;8.23;5.47;;;16.40;99.90;;;;;;5053386;28;20698;-68
2022/10/23 06:50:44;;;;;;;6.80;5.03;;;17.40;99.90;;;;;;5070768;28;20221;-71
2022/10/23 06:53:11;;;;;;;7.18;5.45;;;17.90;99.90;;;;;;5071562;28;20241;-69
2022/10/23 06:55:38;;;;;;;10.80;5.28;;;18.20;99.90;;;;;;5071145;28;20202;-69
2022/10/23 06:58:09;;;;;;;8.88;5.47;;;17.30;99.90;;;;;;5068189;28;20217;-69
2022/10/23 07:00:36;;;;;;;8.75;5.35;;;16.90;99.90;;;;;;5070764;28;20289;-69
2022/10/23 07:03:02;;;;;;;10.23;5.68;;;16.50;99.90;;;;;;5071160;28;20257;-69
2022/10/23 07:05:27;;;;;;;11.20;6.38;;;16.00;99.90;;;;;;5071752;28;20191;-70
2022/10/23 07:07:53;;;;;;;10.15;5.55;;;15.50;99.90;;;;;;5070776;28;20708;-68
2022/10/23 07:10:18;;;;;;;12.52;6.57;;;15.40;99.90;;;;;;5052513;28;20219;-68
2022/10/23 07:12:46;;;;;;;9.88;6.07;;;15.60;99.90;;;;;;5070730;28;20701;-69
2022/10/23 07:15:12;;;;;;;11.32;6.40;;;15.40;99.90;;;;;;5052643;28;20234;-69
2022/10/23 07:17:37;;;;;;;8.05;5.68;;;15.70;99.90;;;;;;5053112;28;20282;-69
2022/10/23 07:20:03;;;;;;;10.27;5.80;;;16.10;99.90;;;;;;5052555;28;20195;-69
2022/10/23 07:22:28;;;;;;;9.88;5.95;;;16.60;99.90;;;;;;5070465;28;20789;-70
2022/10/23 07:24:54;;;;;;;11.18;5.82;;;17.00;99.90;;;;;;5070615;28;20253;-69
2022/10/23 07:27:19;;;;;;;8.25;5.35;;;17.20;99.90;;;;;;5070541;28;20708;-69
2022/10/23 07:29:49;;;;;;;8.63;5.68;;;17.30;99.90;;;;;;5070040;28;20202;-70
2022/10/23 07:32:14;;;;;;;7.85;5.55;;;17.50;99.90;;;;;;5071010;28;20179;-69
2022/10/23 07:34:40;;;;;;;9.77;6.28;;;17.20;99.90;;;;;;5070352;28;20218;-69
2022/10/23 07:37:05;;;;;;;8.13;6.05;;;16.80;99.90;;;;;;5070209;28;20214;-69
2022/10/23 07:39:31;;;;;;;8.57;5.25;;;16.50;99.90;;;;;;5052012;28;20227;-69
2022/10/23 07:41:56;;;;;;;10.07;6.00;;;16.50;99.90;;;;;;5069630;28;20218;-69
2022/10/23 07:44:22;;;;;;;10.02;6.55;;;16.40;99.90;;;;;;5070664;28;20187;-68
2022/10/23 07:46:47;;;;;;;10.13;6.20;;;16.60;99.90;;;;;;5052180;28;20246;-70
2022/10/23 07:49:13;;;;;;;9.73;5.72;;;16.60;99.90;;;;;;5069466;28;20207;-69
2022/10/23 07:51:39;;;;;;;7.97;6.10;;;16.70;99.90;;;;;;5100234;22;20218;-75
2022/10/23 07:54:06;;;;;;;8.57;5.85;;;16.90;99.90;;;;;;5083952;28;20220;-73
2022/10/23 07:56:31;;;;;;;8.90;6.18;;;16.50;99.90;;;;;;5099101;28;20243;-72
2022/10/23 07:58:57;;;;;;;8.00;6.13;;;16.90;99.90;;;;;;5082527;28;20876;-71
2022/10/23 08:01:26;;;;;;;10.40;6.22;;;17.10;99.90;;;;;;5081203;28;20210;-71
2022/10/23 08:03:52;;;;;;;7.53;5.53;;;17.40;99.90;;;;;;5097422;28;20202;-71
2022/10/23 08:06:17;;;;;;;8.02;5.18;;;17.70;99.90;;;;;;5092132;28;20260;-72
2022/10/23 08:08:43;;;;;;;9.35;6.35;;;18.30;99.90;;;;;;5095044;28;20269;-72
2022/10/23 08:11:12;;;;;;;6.45;5.30;;;18.10;99.90;;;;;;5094731;28;20685;-71
2022/10/23 08:13:38;;;;;;;9.30;5.60;;;18.00;99.90;;;;;;5071451;28;20216;-72
2022/10/23 08:16:04;;;;;;;6.70;6.00;;;18.00;99.90;;;;;;5076178;28;20688;-71
2022/10/23 08:18:29;;;;;;;7.80;5.55;;;18.20;99.90;;;;;;5076067;28;20214;-72
2022/10/23 08:21:00;;;;;;;9.63;5.78;;;18.40;99.90;;;;;;5091727;28;20602;-71
2022/10/23 08:23:26;;;;;;;8.57;5.80;;;18.50;99.90;;;;;;5092906;28;20240;-72
2022/10/23 08:26:05;;;;;;;8.35;5.30;;;18.50;99.90;;;;;;5093686;28;20210;-71
2022/10/23 08:28:31;;;;;;;7.68;5.72;;;18.80;99.90;;;;;;5088330;28;20201;-72
2022/10/23 08:30:57;;;;;;;6.70;4.95;;;18.80;99.90;;;;;;5092498;28;20204;-72
2022/10/23 08:33:24;;;;;;;7.93;5.15;;;18.80;99.90;;;;;;5091845;28;20219;-72
2022/10/23 08:35:50;;;;;;;6.60;5.20;;;19.20;99.90;;;;;;5078240;28;20298;-72
2022/10/23 08:38:16;;;;;;;6.70;5.32;;;19.60;99.90;;;;;;5097684;28;20257;-72
2022/10/23 08:40:47;;;;;;;8.18;5.28;;;19.00;99.90;;;;;;5090869;28;20594;-71
2022/10/23 08:43:20;;;;;;;7.93;5.18;;;18.70;99.90;;;;;;5093337;28;20218;-71
2022/10/23 08:45:51;;;;;;;9.63;5.13;;;18.20;99.90;;;;;;5098671;28;20225;-71
2022/10/23 08:48:49;;;;;;;7.82;4.72;;;18.30;99.90;;;;;;5090157;28;20202;-71
2022/10/23 08:51:27;;;;;;;8.93;4.55;;;18.30;99.90;;;;;;5090033;28;20218;-71
2022/10/23 08:54:32;;;;;;;10.35;4.82;;;17.90;99.90;;;;;;5095863;28;20645;-70
2022/10/23 08:57:08;;;;;;;10.63;5.07;;;18.00;99.90;;;;;;5087849;28;20585;-71
2022/10/23 08:59:46;;;;;;;6.05;3.88;;;17.70;99.90;;;;;;5094234;28;20535;-71
2022/10/23 09:02:16;;;;;;;7.32;3.65;;;17.90;99.90;;;;;;5094814;28;20808;-71
2022/10/23 09:04:45;;;;;;;9.57;4.45;;;17.80;99.90;;;;;;5101515;28;20221;-71
2022/10/23 09:07:35;;;;;;;8.02;4.07;;;17.60;99.90;;;;;;5072073;28;20199;-71
2022/10/23 09:10:23;;;;;;;6.25;3.83;;;17.80;99.90;;;;;;5078671;28;20214;-71
2022/10/23 09:12:48;;;;;;;8.80;4.10;;;17.60;99.90;;;;;;5092051;28;20581;-71
2022/10/23 09:15:40;;;;;;;9.00;4.00;;;17.90;99.90;;;;;;5091670;28;20203;-72
2022/10/23 09:18:15;;;;;;;7.35;4.18;;;18.40;99.90;;;;;;5094267;28;20259;-72
2022/10/23 09:20:43;;;;;;;7.40;4.15;;;18.30;99.90;;;;;;5101746;28;20272;-72
2022/10/23 09:23:16;;;;;;;10.40;3.92;;;18.20;99.90;;;;;;5095848;28;20174;-72
2022/10/23 09:25:43;;;;;;;7.75;4.38;;;18.50;99.90;;;;;;5093964;28;20221;-71
2022/10/23 09:28:30;;;;;;;7.57;4.30;;;18.40;99.90;;;;;;5101119;28;20202;-72
2022/10/23 09:31:07;;;;;;;5.53;3.90;;;18.50;99.90;;;;;;5060831;28;20644;-72
2022/10/23 09:33:35;;;;;;;8.27;3.45;;;18.80;99.90;;;;;;5091520;28;20804;-71
2022/10/23 09:36:16;;;;;;;6.20;3.45;;;18.80;99.90;;;;;;5079057;28;20222;-72
2022/10/23 09:38:49;;;;;;;7.43;3.22;;;18.90;99.90;;;;;;5095417;28;20581;-71
2022/10/23 09:41:27;;;;;;;4.32;3.47;;;18.60;99.90;;;;;;5086493;28;20199;-71
2022/10/23 09:44:25;;;;;;;5.93;3.55;;;18.50;99.90;;;;;;5079011;28;20736;-71
2022/10/23 09:47:00;;;;;;;6.45;3.55;;;18.70;99.90;;;;;;5076904;28;20294;-71
2022/10/23 09:49:37;;;;;;;5.20;3.22;;;18.90;99.90;;;;;;5093152;28;20248;-72
2022/10/23 09:52:34;;;;;;;5.20;2.95;;;18.70;99.90;;;;;;5094742;28;20214;-71
2022/10/23 09:55:17;;;;;;;3.97;2.55;;;18.80;99.90;;;;;;5097390;28;20214;-71
2022/10/23 09:57:43;;;;;;;6.03;2.90;;;19.40;99.90;;;;;;5094398;28;20205;-71
2022/10/23 10:00:17;;;;;;;7.15;2.83;;;19.20;99.90;;;;;;5072392;28;20724;-71
2022/10/23 10:03:04;;;;;;;8.60;2.92;;;18.70;99.90;;;;;;5100605;28;20190;-71
2022/10/23 10:05:31;;;;;;;4.45;2.60;;;18.50;99.90;;;;;;5095967;28;20692;-71
2022/10/23 10:08:21;;;;;;;5.35;3.15;;;18.50;99.90;;;;;;5080474;28;20206;-71
2022/10/23 10:10:51;;;;;;;7.20;2.72;;;18.60;99.90;;;;;;5084596;28;20690;-71
2022/10/23 10:13:36;;;;;;;6.55;2.65;;;18.80;99.90;;;;;;5072465;28;20681;-71
2022/10/23 10:16:18;;;;;;;7.38;3.67;;;19.00;99.90;;;;;;5091265;28;20224;-71
2022/10/23 10:19:04;;;;;;;3.63;2.13;;;18.90;99.90;;;;;;5096067;28;20585;-71
2022/10/23 10:21:38;;;;;;;3.45;2.13;;;19.40;99.90;;;;;;5069785;28;20293;-71
2022/10/23 10:24:31;;;;;;;7.13;2.63;;;19.40;99.90;;;;;;5088516;28;20206;-72
2022/10/23 10:27:22;;;;;;;5.45;2.05;;;19.60;99.90;;;;;;5096104;28;20206;-71
2022/10/23 10:30:03;;;;;;;3.22;2.20;;;19.30;99.90;;;;;;5075850;28;20280;-71
2022/10/23 10:32:54;;;;;;;6.93;2.13;;;19.40;99.90;;;;;;5093605;28;20183;-71
2022/10/23 10:35:50;;;;;;;4.35;1.90;;;19.10;99.90;;;;;;5097046;28;20176;-71
2022/10/23 10:38:43;;;;;;;4.40;2.15;;;19.00;99.90;;;;;;5065896;28;20210;-72
2022/10/23 10:41:18;;;;;;;3.58;2.17;;;19.10;99.90;;;;;;5091694;28;20206;-71
2022/10/23 10:44:09;;;;;;;4.88;2.08;;;19.10;99.90;;;;;;5094253;28;20251;-71
2022/10/23 10:46:50;;;;;;;5.38;2.03;;;19.30;99.90;;;;;;5077415;28;20263;-71
2022/10/23 10:49:19;;;;;;;5.07;2.10;;;19.40;99.90;;;;;;5077217;28;20634;-71
2022/10/23 10:52:10;;;;;;;5.65;2.58;;;19.80;99.90;;;;;;5098097;28;20221;-72
2022/10/23 10:54:38;;;;;;;6.32;2.33;;;19.70;99.90;;;;;;5100583;28;20293;-72
2022/10/23 10:57:12;;;;;;;5.20;2.20;;;19.90;99.90;;;;;;5094506;28;20206;-72
2022/10/23 10:59:41;;;;;;;5.10;2.80;;;20.00;99.90;;;;;;5096837;28;20185;-71
2022/10/23 11:02:24;;;;;;;5.25;2.13;;;19.70;99.90;;;;;;5091164;28;20207;-71
2022/10/23 11:05:13;;;;;;;7.13;2.55;;;19.20;99.90;;;;;;5099311;28;20218;-72
2022/10/23 11:07:54;;;;;;;4.53;2.10;;;19.00;99.90;;;;;;5089500;28;20213;-70
2022/10/23 11:10:20;;;;;;;4.57;2.10;;;18.90;99.90;;;;;;5082018;28;20199;-70
2022/10/23 11:12:47;;;;;;;6.05;2.70;;;18.80;99.90;;;;;;5095681;28;20210;-71
2022/10/23 11:15:24;;;;;;;6.38;2.65;;;18.80;99.90;;;;;;5092386;28;20836;-71
2022/10/23 11:18:02;;;;;;;4.75;2.03;;;18.90;99.90;;;;;;5079756;28;20217;-70
2022/10/23 11:21:07;;;;;;;6.38;3.00;;;19.00;99.90;;;;;;5100488;28;20193;-73
2022/10/23 11:24:15;;;;;;;7.18;2.05;;;19.20;99.90;;;;;;5076856;28;20185;-72
2022/10/23 11:27:05;;;;;;;4.15;2.00;;;19.50;99.90;;;;;;5082892;28;20201;-72
2022/10/23 11:29:50;;;;;;;7.18;1.90;;;19.50;99.90;;;;;;5096976;28;20169;-72
2022/10/23 11:32:16;;;;;;;6.07;2.58;;;19.40;99.90;;;;;;5069237;28;20286;-72
2022/10/23 11:34:53;;;;;;;7.82;2.50;;;19.50;99.90;;;;;;5097768;28;20281;-72
2022/10/23 11:37:20;;;;;;;6.18;1.88;;;19.20;99.90;;;;;;5095781;28;20267;-71
2022/10/23 11:40:01;;;;;;;4.15;2.17;;;19.20;99.90;;;;;;5073780;28;20290;-72
2022/10/23 11:42:38;;;;;;;4.20;2.35;;;19.40;99.90;;;;;;5092862;28;20300;-72
2022/10/23 11:45:24;;;;;;;5.28;2.63;;;19.60;99.90;;;;;;5093113;28;20214;-72
2022/10/23 11:48:00;;;;;;;6.40;2.35;;;19.60;99.90;;;;;;5077011;28;20272;-72
2022/10/23 11:50:48;;;;;;;3.15;1.85;;;19.60;99.90;;;;;;5089756;28;20684;-72
2022/10/23 11:53:24;;;;;;;4.97;2.30;;;19.70;99.90;;;;;;5070150;28;20235;-72
2022/10/23 11:56:11;;;;;;;4.38;2.13;;;19.50;99.90;;;;;;5078077;28;20687;-72
2022/10/23 11:58:52;;;;;;;7.15;2.25;;;19.40;99.90;;;;;;5086017;28;20683;-72
2022/10/23 12:01:41;;;;;;;6.95;2.17;;;19.10;99.90;;;;;;5094546;28;20724;-72
2022/10/23 12:04:13;;;;;;;4.97;2.00;;;19.30;99.90;;;;;;5097030;28;20230;-72
2022/10/23 12:06:45;;;;;;;6.95;3.42;;;19.30;99.90;;;;;;5073990;28;20272;-72
2022/10/23 12:09:28;;;;;;;6.10;2.10;;;19.50;99.90;;;;;;5089226;28;20691;-72
2022/10/23 12:12:05;;;;;;;7.82;2.33;;;19.70;99.90;;;;;;5092952;28;20316;-72
2022/10/23 12:14:37;;;;;;;9.10;1.90;;;19.60;99.90;;;;;;5090754;28;20714;-72
2022/10/23 12:17:17;;;;;;;3.40;1.77;;;19.70;99.90;;;;;;5092833;28;20186;-72
2022/10/23 12:19:48;;;;;;;2.85;1.73;;;19.80;99.90;;;;;;5070967;28;20310;-72
2022/10/23 12:22:14;;;;;;;9.20;2.20;;;19.70;99.90;;;;;;5075171;28;20207;-72
2022/10/23 12:24:57;;;;;;;6.88;2.42;;;19.50;99.90;;;;;;5095289;28;20259;-72
2022/10/23 12:27:28;;;;;;;3.97;1.60;;;19.60;99.90;;;;;;5098381;28;20201;-72
2022/10/23 12:29:53;;;;;;;4.38;1.92;;;19.60;99.90;;;;;;5096347;28;20777;-72
2022/10/23 12:32:31;;;;;;;6.93;2.10;;;19.50;99.90;;;;;;5072824;28;20285;-70
2022/10/23 12:35:21;;;;;;;8.27;2.20;;;19.40;99.90;;;;;;5094208;28;20360;-72
2022/10/23 12:38:13;;;;;;;2.63;1.70;;;19.40;99.90;;;;;;5099449;28;20240;-72
2022/10/23 12:40:42;;;;;;;6.30;2.05;;;19.50;99.90;;;;;;5091050;28;20591;-72
2022/10/23 12:43:31;;;;;;;4.40;1.65;;;19.40;99.90;;;;;;5095132;28;20588;-72
2022/10/23 12:46:04;;;;;;;6.22;2.17;;;19.40;99.90;;;;;;5099433;28;20757;-72
2022/10/23 12:48:32;;;;;;;6.85;2.00;;;19.30;99.90;;;;;;5077895;28;20206;-72
2022/10/23 12:50:58;;;;;;;3.90;1.48;;;19.20;99.90;;;;;;5080597;28;20267;-72
2022/10/23 12:53:23;;;;;;;3.15;1.50;;;19.30;99.90;;;;;;5100947;28;20182;-72
2022/10/23 12:55:58;;;;;;;4.60;2.05;;;19.20;99.90;;;;;;5101535;28;20760;-72
2022/10/23 12:58:33;;;;;;;6.65;1.80;;;19.30;99.90;;;;;;5094200;28;20214;-72
2022/10/23 13:01:04;;;;;;;2.53;1.52;;;19.40;99.90;;;;;;5066086;28;20282;-72
2022/10/23 13:03:31;;;;;;;4.40;1.63;;;19.40;99.90;;;;;;5072897;28;20210;-72
2022/10/23 13:05:58;;;;;;;2.58;1.35;;;19.50;99.90;;;;;;5100293;28;20232;-70